Aeroporto :
LOGIN :

Iscrizione | Disclaimer

   EN    FR    IT 

 










Sommario :    VFR   VFR Marginale   IFR   IFR Intensivo   IFR Molto Intensivo
Visibilità : 
Base nubi : 
>= 8 km
>= 3000ft
5 / 8 km
1000 / 3000 ft
1500m / 5 km
500 / 1000 ft
800 / 1500m
200 / 500 ft
< 800m
< 200 ft
Simboli :   Temporali  Nebbia  Neve Forte  Precipitazioni Forti  Vento > 20 kt
SIGMETs :   Varie  Temporali  Ghiacco  Turbolenza  Onda orograficha  Ceneri Vulcaniche






- Altitudine del aeroporto : 120 ft
- Codice IATA : MME


EGNV - Durham Tees valley

ULTIMO METAR :
  • 251950Z 28010KT 9999 SCT040 13/06 Q1010

METARs OBSOLETI :
  • 251850Z 27016KT 9999 FEW040 14/06 Q1009
  • 251820Z 28015KT 9999 FEW043 14/06 Q1009
  • 251750Z 28020G30KT 9999 FEW028 SCT045 15/06 Q1008
  • 251720Z 26017G28KT 9999 FEW025 SCT044 15/06 Q1008

TAF AMD TAF EGNV
Valido dal 25 a 18 ore il 25 a 23 ore UTC


251759Z 2518/2523 27020G30KT 9999 SCT040
BECMG 2518/2521 24009KT
ATIS : +44 9012 018 111



MetMap, La meteo Aeronautica in un colpo d'occhio ! - Copyright ORBIFLY Dicembre 2007 - Disclaimer

ORBIFLY MET'MAP TEAM :

Programmazione e sviluppo : Alexandra Zaïnal
Concezione : Baudouin d'Aumeries
Supporto tecnico e logistico : Manuel Goepfert
Aiuto : Marc-Olivier Méhu
Aiuto per la traduzione : Arnaldo La Scala

Contatto : metmap@orbifly.com




FONTI E CREDITI :

   NOAA